Time;durP1;ratioP1;P1;durP2;ratioP2;P2;SDS_P1;SDS_P2;PMS_P1;PMS_P2;Temp;Humidity;BMP_temperature;BMP_pressure;BME280_temperature;BME280_humidity;BME280_pressure;Samples;Min_cycle;Max_cycle;Signal;HPM_P1;HPM_P2
2022/03/09 00:02:24;;;;;;;2.53;1.95;;;;;;;1.74;71.90;102279.94;5054394;28;20163;-73
2022/03/09 00:04:49;;;;;;;4.95;2.05;;;;;;;1.75;71.42;102286.00;5051867;28;20043;-74
2022/03/09 00:07:14;;;;;;;3.28;2.13;;;;;;;1.74;71.56;102285.16;5055063;28;20090;-74
2022/03/09 00:09:40;;;;;;;4.57;2.33;;;;;;;1.72;71.29;102283.50;5057254;28;20117;-74
2022/03/09 00:12:06;;;;;;;3.38;1.77;;;;;;;1.60;71.26;102270.03;5058312;28;20078;-74
2022/03/09 00:14:31;;;;;;;4.32;1.98;;;;;;;1.69;71.30;102288.81;5062139;28;20043;-74
2022/03/09 00:16:56;;;;;;;4.15;1.95;;;;;;;1.66;71.47;102284.59;5055143;28;20035;-74
2022/03/09 00:19:22;;;;;;;5.53;2.35;;;;;;;1.67;71.67;102285.44;5053118;28;20400;-73
2022/03/09 00:21:47;;;;;;;3.92;2.10;;;;;;;1.63;71.86;102293.34;5057527;28;20037;-74
2022/03/09 00:24:14;;;;;;;3.50;2.25;;;;;;;1.60;72.20;102293.44;5056132;28;20035;-74
2022/03/09 00:26:41;;;;;;;3.88;1.90;;;;;;;1.56;71.88;102291.88;5054229;28;20069;-74
2022/03/09 00:29:06;;;;;;;4.55;2.00;;;;;;;1.53;72.26;102292.00;5060808;28;20035;-74
2022/03/09 00:31:32;;;;;;;4.68;2.22;;;;;;;1.48;72.13;102293.91;5053103;28;20024;-74
2022/03/09 00:33:57;;;;;;;4.47;2.65;;;;;;;1.44;71.63;102289.72;5056804;28;20111;-74
2022/03/09 00:36:23;;;;;;;3.75;2.00;;;;;;;1.45;72.10;102294.00;5053528;28;20032;-73
2022/03/09 00:38:48;;;;;;;3.00;2.10;;;;;;;1.40;71.68;102298.53;5057701;28;20062;-73
2022/03/09 00:41:14;;;;;;;5.07;2.20;;;;;;;1.03;71.93;102246.06;5060397;28;20036;-73
2022/03/09 00:43:39;;;;;;;3.28;2.28;;;;;;;1.17;71.87;102274.19;5057449;28;20036;-73
2022/03/09 00:46:05;;;;;;;4.50;2.90;;;;;;;1.31;71.61;102302.31;5035026;28;20111;-73
2022/03/09 00:48:30;;;;;;;4.53;2.22;;;;;;;1.15;72.08;102283.78;5056322;28;20021;-73
2022/03/09 00:50:55;;;;;;;4.30;1.95;;;;;;;1.19;72.38;102297.53;5062502;28;20025;-73
2022/03/09 00:53:21;;;;;;;4.50;2.30;;;;;;;1.13;72.64;102293.44;5056255;28;20110;-73
2022/03/09 00:55:46;;;;;;;3.42;2.17;;;;;;;1.10;72.62;102287.47;5053494;28;20029;-73
2022/03/09 00:58:11;;;;;;;5.07;2.30;;;;;;;1.09;72.37;102288.34;5051684;28;20115;-73
2022/03/09 01:00:37;;;;;;;5.60;2.60;;;;;;;1.07;72.64;102283.22;5058950;28;20052;-73
2022/03/09 01:03:02;;;;;;;5.80;2.20;;;;;;;1.01;73.08;102284.28;5058974;28;20400;-73
2022/03/09 01:05:28;;;;;;;7.00;2.45;;;;;;;0.92;73.21;102273.38;5052995;28;20028;-73
2022/03/09 01:07:53;;;;;;;4.40;2.20;;;;;;;0.97;73.37;102287.03;5052234;28;20519;-73
2022/03/09 01:10:18;;;;;;;4.45;2.28;;;;;;;0.81;72.95;102261.56;5060351;28;20444;-73
2022/03/09 01:12:45;;;;;;;3.17;2.15;;;;;;;0.85;72.79;102271.84;5037548;28;20044;-73
2022/03/09 01:15:11;;;;;;;3.83;2.20;;;;;;;0.87;73.13;102280.44;5055278;28;20484;-73
2022/03/09 01:17:37;;;;;;;4.55;2.97;;;;;;;0.76;73.01;102273.00;5053942;28;20455;-73
2022/03/09 01:20:03;;;;;;;3.88;2.55;;;;;;;0.80;73.27;102275.44;5058574;28;20033;-73
2022/03/09 01:22:29;;;;;;;3.85;2.13;;;;;;;0.78;73.49;102266.00;5065007;28;20043;-72
2022/03/09 01:24:54;;;;;;;3.65;2.20;;;;;;;0.71;73.29;102257.56;5057470;28;20028;-73
2022/03/09 01:27:19;;;;;;;3.80;2.05;;;;;;;0.60;73.54;102241.50;5056246;28;20104;-73
2022/03/09 01:29:45;;;;;;;3.50;2.47;;;;;;;0.82;73.32;102284.03;5063920;28;20032;-73
2022/03/09 01:32:10;;;;;;;4.28;2.28;;;;;;;0.82;73.09;102284.03;5066132;28;20039;-73
2022/03/09 01:34:35;;;;;;;3.85;2.08;;;;;;;0.79;73.05;102278.97;5055689;28;20028;-73
2022/03/09 01:37:01;;;;;;;4.35;2.28;;;;;;;0.62;73.36;102260.50;5059123;28;20035;-73
2022/03/09 01:39:26;;;;;;;5.93;2.60;;;;;;;0.66;73.48;102282.88;5055469;28;20036;-73
2022/03/09 01:41:52;;;;;;;4.80;2.55;;;;;;;0.60;73.58;102285.66;5061380;28;20377;-73
2022/03/09 01:44:20;;;;;;;3.80;2.53;;;;;;;0.54;73.77;102288.47;5057821;28;20109;-73
2022/03/09 01:46:51;;;;;;;3.83;2.00;;;;;;;0.44;74.05;102276.69;5053594;28;20028;-73
2022/03/09 01:49:18;;;;;;;4.78;2.38;;;;;;;0.37;74.14;102292.47;5054318;28;20104;-73
2022/03/09 01:51:46;;;;;;;4.07;2.55;;;;;;;0.34;74.68;102295.16;5054853;28;20020;-73
2022/03/09 01:54:13;;;;;;;4.53;2.45;;;;;;;0.31;74.77;102297.84;5055611;28;20070;-73
2022/03/09 01:56:39;;;;;;;5.15;2.45;;;;;;;0.29;74.77;102289.25;5062428;28;20150;-73
2022/03/09 01:59:06;;;;;;;4.70;2.33;;;;;;;0.26;74.83;102285.91;5058187;28;20028;-73
2022/03/09 02:01:32;;;;;;;5.55;2.10;;;;;;;0.25;74.76;102282.47;5063746;28;20455;-73
2022/03/09 02:03:58;;;;;;;4.25;2.42;;;;;;;0.24;74.79;102274.72;5057930;28;20107;-73
2022/03/09 02:06:24;;;;;;;3.67;2.35;;;;;;;0.20;74.78;102269.63;5057316;28;20017;-73
2022/03/09 02:11:36;;;;;;;5.45;2.95;;;;;;;0.09;74.94;102244.91;5059408;28;20464;-73
2022/03/09 02:14:01;;;;;;;3.78;2.03;;;;;;;0.05;75.19;102246.75;5061558;28;20480;-73
2022/03/09 02:16:27;;;;;;;2.72;2.10;;;;;;;0.18;75.25;102255.00;5061901;28;20034;-73
2022/03/09 02:18:52;;;;;;;5.15;2.70;;;;;;;0.08;75.44;102243.19;5058292;28;20107;-73
2022/03/09 02:21:19;;;;;;;3.88;2.55;;;;;;;0.08;75.62;102248.38;5056160;28;20080;-72
2022/03/09 02:23:45;;;;;;;3.47;2.78;;;;;;;0.04;76.01;102249.38;5053679;28;20138;-72
2022/03/09 02:26:10;;;;;;;2.95;1.98;;;;;;;-0.09;76.09;102236.75;5063796;28;20021;-73
2022/03/09 02:28:38;;;;;;;7.80;2.33;;;;;;;-0.15;76.43;102230.91;5043195;28;20033;-73
2022/03/09 02:31:04;;;;;;;4.05;2.80;;;;;;;-0.06;76.56;102251.41;5059412;28;20089;-73
2022/03/09 02:33:29;;;;;;;5.50;2.53;;;;;;;-0.13;76.87;102245.56;5052857;28;20033;-72
2022/03/09 02:35:55;;;;;;;6.03;3.08;;;;;;;-0.15;77.13;102244.75;5051785;28;20738;-73
2022/03/09 02:38:20;;;;;;;4.97;2.88;;;;;;;-0.18;77.04;102247.44;5052469;28;20539;-72
2022/03/09 02:40:46;;;;;;;4.00;2.45;;;;;;;-0.14;77.28;102258.59;5053189;28;20455;-72
2022/03/09 02:43:12;;;;;;;3.83;2.38;;;;;;;-0.32;77.37;102231.44;5066777;28;20048;-74
2022/03/09 02:45:37;;;;;;;2.78;2.05;;;;;;;-0.21;77.53;102260.50;5054261;28;20031;-72
2022/03/09 02:48:03;;;;;;;3.97;2.65;;;;;;;-0.24;77.63;102255.41;5051468;28;20032;-73
2022/03/09 02:50:28;;;;;;;4.55;2.70;;;;;;;-0.24;77.69;102258.00;5034453;28;20090;-73
2022/03/09 02:52:54;;;;;;;4.22;2.58;;;;;;;-0.24;77.78;102260.59;5052656;28;20473;-74
2022/03/09 02:55:19;;;;;;;4.32;2.50;;;;;;;-0.24;77.69;102268.38;5052165;28;20033;-72
2022/03/09 02:57:44;;;;;;;5.28;2.85;;;;;;;-0.23;77.37;102259.69;5050843;28;20485;-73
2022/03/09 03:00:11;;;;;;;4.90;2.60;;;;;;;-0.22;77.33;102256.19;5049914;28;20115;-72
2022/03/09 03:02:38;;;;;;;7.25;2.65;;;;;;;-0.30;76.99;102253.00;5050992;28;20036;-73
2022/03/09 03:05:05;;;;;;;5.15;2.95;;;;;;;-0.37;77.30;102238.50;5050987;28;20056;-73
2022/03/09 03:07:30;;;;;;;4.35;2.92;;;;;;;-0.29;77.11;102246.91;5054953;28;20473;-73
2022/03/09 03:09:56;;;;;;;4.10;2.10;;;;;;;-0.17;77.00;102264.72;5053790;28;20029;-73
2022/03/09 03:12:21;;;;;;;4.00;2.38;;;;;;;-0.29;76.67;102239.13;5054042;28;20083;-73
2022/03/09 03:14:47;;;;;;;5.40;2.83;;;;;;;-0.17;76.92;102269.91;5053770;28;20029;-72
2022/03/09 03:17:12;;;;;;;7.03;2.85;;;;;;;-0.14;77.03;102269.81;5050050;28;20715;-73
2022/03/09 03:19:38;;;;;;;5.10;3.15;;;;;;;-0.11;76.52;102267.13;5056374;28;20029;-74
2022/03/09 03:22:03;;;;;;;4.65;2.70;;;;;;;-0.17;76.79;102256.94;5050954;28;20053;-72
2022/03/09 03:24:28;;;;;;;6.28;2.70;;;;;;;-0.09;76.62;102267.06;5057168;28;20081;-73
2022/03/09 03:26:54;;;;;;;6.00;2.88;;;;;;;-0.12;76.52;102261.97;5050590;28;20158;-73
2022/03/09 03:29:20;;;;;;;3.00;2.40;;;;;;;-0.17;76.68;102262.13;5050702;28;20507;-73
2022/03/09 03:31:45;;;;;;;7.68;3.15;;;;;;;-0.30;77.12;102274.59;5049099;28;20040;-73
2022/03/09 03:34:10;;;;;;;5.53;3.13;;;;;;;-0.43;77.92;102274.09;5048840;28;20056;-73
2022/03/09 03:36:36;;;;;;;6.38;3.15;;;;;;;-0.52;78.28;102260.53;5057331;28;20032;-73
2022/03/09 03:39:02;;;;;;;7.28;3.28;;;;;;;-0.47;78.57;102272.50;5050184;28;20048;-73
2022/03/09 03:41:27;;;;;;;5.05;3.05;;;;;;;-0.46;78.17;102274.22;5053323;28;20089;-73
2022/03/09 03:43:52;;;;;;;3.35;2.40;;;;;;;-0.53;78.52;102274.41;5055386;28;20029;-73
2022/03/09 03:46:18;;;;;;;4.80;2.83;;;;;;;-0.64;78.75;102274.72;5032113;28;20238;-73
2022/03/09 03:48:43;;;;;;;8.35;3.28;;;;;;;-0.56;79.21;102290.91;5047265;28;20538;-73
2022/03/09 03:51:08;;;;;;;4.88;2.97;;;;;;;-0.57;79.01;102296.97;5049159;28;20536;-73
2022/03/09 03:53:34;;;;;;;6.57;2.55;;;;;;;-0.75;79.40;102268.97;5049385;28;20032;-73
2022/03/09 03:55:59;;;;;;;6.75;2.75;;;;;;;-0.62;79.31;102288.47;5048425;28;20033;-73
2022/03/09 03:58:25;;;;;;;5.88;3.22;;;;;;;-0.76;79.78;102277.63;5049580;28;20036;-73
2022/03/09 04:00:50;;;;;;;5.80;3.13;;;;;;;-0.71;79.85;102293.94;5059353;28;20094;-73
2022/03/09 04:03:15;;;;;;;4.45;3.20;;;;;;;-0.74;80.17;102278.44;5049906;28;20062;-73
2022/03/09 04:05:41;;;;;;;5.93;3.30;;;;;;;-0.84;79.91;102263.16;5049664;28;20029;-73
2022/03/09 04:08:06;;;;;;;4.40;3.15;;;;;;;-0.71;80.19;102291.34;5058767;28;20032;-73
2022/03/09 04:10:32;;;;;;;5.93;3.25;;;;;;;-0.71;80.05;102293.94;5049119;28;20027;-73
2022/03/09 04:13:00;;;;;;;3.47;2.22;;;;;;;-0.72;79.83;102289.63;5051738;28;20485;-73
2022/03/09 04:15:26;;;;;;;4.75;2.58;;;;;;;-0.68;79.61;102291.25;5033000;28;20052;-73
2022/03/09 04:17:52;;;;;;;8.38;3.60;;;;;;;-0.65;79.53;102280.81;5049433;28;20124;-73
2022/03/09 04:20:17;;;;;;;3.83;2.25;;;;;;;-0.65;79.53;102283.41;5055760;28;20544;-73
2022/03/09 04:22:43;;;;;;;5.13;3.55;;;;;;;-0.64;79.92;102279.91;5057568;28;20397;-73
2022/03/09 04:25:09;;;;;;;5.60;2.83;;;;;;;-0.73;79.27;102264.59;5048796;28;20024;-73
2022/03/09 04:27:35;;;;;;;8.60;3.58;;;;;;;-0.56;79.25;102285.72;5048568;28;20040;-73
2022/03/09 04:30:00;;;;;;;5.10;2.75;;;;;;;-0.54;79.17;102293.47;5051961;28;20059;-73
2022/03/09 04:32:26;;;;;;;7.65;3.40;;;;;;;-0.53;78.91;102288.22;5055076;28;20047;-73
2022/03/09 04:34:52;;;;;;;5.80;3.20;;;;;;;-0.54;79.00;102286.53;5048375;28;20032;-72
2022/03/09 04:37:19;;;;;;;5.00;2.70;;;;;;;-0.64;79.09;102265.19;5046862;28;20068;-72
2022/03/09 04:39:44;;;;;;;6.72;3.30;;;;;;;-0.53;78.89;102287.38;5051266;28;20031;-72
2022/03/09 04:42:10;;;;;;;4.00;2.83;;;;;;;-0.54;78.66;102285.69;5062375;28;20032;-73
2022/03/09 04:44:36;;;;;;;4.97;3.20;;;;;;;-0.56;79.08;102279.69;5062207;28;20028;-74
2022/03/09 04:47:01;;;;;;;6.10;2.95;;;;;;;-0.55;78.63;102289.16;5049889;28;20059;-74
2022/03/09 04:49:26;;;;;;;4.68;2.80;;;;;;;-0.66;78.60;102279.94;5050019;28;20021;-74
2022/03/09 04:51:52;;;;;;;5.28;3.20;;;;;;;-0.59;78.50;102290.13;5053317;28;20048;-74
2022/03/09 04:54:17;;;;;;;5.45;2.90;;;;;;;-0.78;78.90;102269.91;5054458;28;20025;-74
2022/03/09 04:56:42;;;;;;;4.80;3.22;;;;;;;-0.74;79.05;102288.81;5043250;28;20119;-74
2022/03/09 04:59:08;;;;;;;6.13;3.55;;;;;;;-0.76;79.29;102299.25;5054152;28;20028;-74
2022/03/09 05:01:33;;;;;;;5.47;2.72;;;;;;;-0.71;79.38;102288.75;5054174;28;20111;-74
2022/03/09 05:03:58;;;;;;;4.57;2.85;;;;;;;-0.70;79.22;102287.84;5052145;28;20028;-74
2022/03/09 05:06:24;;;;;;;7.25;3.35;;;;;;;-0.84;78.65;102257.13;5052881;28;20037;-74
2022/03/09 05:08:49;;;;;;;6.40;3.55;;;;;;;-0.63;78.78;102286.81;5053039;28;20083;-74
2022/03/09 05:11:15;;;;;;;8.43;3.65;;;;;;;-0.61;78.66;102284.97;5041059;28;20031;-74
2022/03/09 05:13:40;;;;;;;6.13;3.53;;;;;;;-0.66;78.17;102271.31;5053267;28;20514;-74
2022/03/09 05:16:07;;;;;;;8.15;3.75;;;;;;;-0.60;78.36;102286.69;5058846;28;20476;-74
2022/03/09 05:18:37;;;;;;;4.88;2.75;;;;;;;-0.63;78.50;102284.22;5054098;28;20029;-74
2022/03/09 05:21:02;;;;;;;7.88;3.33;;;;;;;-0.86;78.60;102287.41;5052223;28;20052;-74
2022/03/09 05:23:28;;;;;;;6.30;3.33;;;;;;;-0.88;79.07;102284.84;5060964;28;20408;-74
2022/03/09 05:25:53;;;;;;;4.35;2.45;;;;;;;-0.86;79.26;102285.66;5054512;28;20032;-74
2022/03/09 05:28:18;;;;;;;5.30;3.38;;;;;;;-0.79;78.67;102291.53;5053027;28;20029;-74
2022/03/09 05:30:44;;;;;;;5.50;2.60;;;;;;;-0.76;78.84;102290.59;5053977;28;20028;-74
2022/03/09 05:33:09;;;;;;;5.72;2.80;;;;;;;-0.84;78.49;102276.09;5034969;28;20178;-72
2022/03/09 05:35:37;;;;;;;6.43;3.65;;;;;;;-0.86;78.83;102287.41;5060174;28;20484;-72
2022/03/09 05:38:02;;;;;;;6.25;2.92;;;;;;;-0.91;78.95;102287.53;5054409;28;20427;-72
2022/03/09 05:40:27;;;;;;;6.90;3.35;;;;;;;-0.94;79.20;102277.22;5052495;28;20110;-74
2022/03/09 05:42:53;;;;;;;5.80;3.03;;;;;;;-0.93;79.41;102284.13;5061949;28;20143;-74
2022/03/09 05:45:18;;;;;;;5.15;3.45;;;;;;;-0.94;79.46;102287.59;5059282;28;20024;-74
2022/03/09 05:47:44;;;;;;;6.35;3.53;;;;;;;-1.02;80.02;102292.16;5055702;28;20051;-73
2022/03/09 05:50:09;;;;;;;8.35;4.25;;;;;;;-1.16;80.98;102291.66;5048810;28;20033;-74
2022/03/09 05:52:35;;;;;;;6.70;3.15;;;;;;;-1.31;81.09;102283.34;5050146;28;20120;-74
2022/03/09 05:55:00;;;;;;;6.57;3.38;;;;;;;-1.29;81.41;102289.34;5043066;28;20032;-74
2022/03/09 05:57:26;;;;;;;6.90;3.60;;;;;;;-1.31;81.60;102296.31;5047981;28;20477;-73
2022/03/09 05:59:51;;;;;;;7.32;3.38;;;;;;;-1.34;82.39;102291.22;5051159;28;20063;-72
2022/03/09 06:02:16;;;;;;;5.05;3.20;;;;;;;-1.45;82.42;102294.06;5047578;28;20032;-72
2022/03/09 06:04:51;;;;;;;6.15;3.85;;;;;;;-1.41;82.58;102300.03;5064925;28;20494;-73
2022/03/09 06:07:16;;;;;;;5.43;2.88;;;;;;;-1.44;83.11;102305.28;5046413;28;20044;-74
2022/03/09 06:09:41;;;;;;;5.38;3.25;;;;;;;-1.50;83.28;102308.88;5032166;28;20025;-74
2022/03/09 06:12:08;;;;;;;5.05;3.45;;;;;;;-1.51;83.62;102316.66;5048111;28;20102;-74
2022/03/09 06:14:33;;;;;;;6.68;4.03;;;;;;;-1.66;83.55;102295.41;5048143;28;20038;-73
2022/03/09 06:16:58;;;;;;;4.68;3.28;;;;;;;-1.53;83.86;102321.03;5047464;28;20787;-74
2022/03/09 06:19:24;;;;;;;6.13;3.30;;;;;;;-1.53;83.82;102319.28;5048897;28;20025;-74
2022/03/09 06:21:49;;;;;;;6.82;2.80;;;;;;;-1.59;84.16;102313.41;5048697;28;20482;-74
2022/03/09 06:24:16;;;;;;;6.03;3.40;;;;;;;-1.55;83.95;102322.81;5029725;28;20050;-74
2022/03/09 06:26:43;;;;;;;7.07;3.78;;;;;;;-1.56;83.97;102316.78;5046184;28;20082;-74
2022/03/09 06:29:08;;;;;;;6.47;3.85;;;;;;;-1.46;83.79;102325.16;5047621;28;20033;-74
2022/03/09 06:31:34;;;;;;;5.50;3.47;;;;;;;-1.38;83.66;102325.84;5045943;28;20196;-74
2022/03/09 06:34:00;;;;;;;7.80;4.15;;;;;;;-1.44;83.10;102323.41;5046481;28;20040;-74
2022/03/09 06:36:25;;;;;;;8.73;4.18;;;;;;;-1.32;83.38;102338.66;5047528;28;20025;-76
2022/03/09 06:38:51;;;;;;;7.82;3.55;;;;;;;-1.31;82.97;102345.53;5049014;28;20023;-74
2022/03/09 06:41:17;;;;;;;5.15;3.47;;;;;;;-1.28;83.19;102336.84;5045648;28;20036;-75
2022/03/09 06:43:42;;;;;;;6.57;4.28;;;;;;;-1.23;82.99;102336.75;5047536;28;20037;-75
2022/03/09 06:46:08;;;;;;;6.32;3.60;;;;;;;-1.23;83.01;102336.75;5049440;28;20029;-76
2022/03/09 06:48:34;;;;;;;8.18;4.32;;;;;;;-1.17;82.70;102337.44;5044352;28;21037;-75
2022/03/09 06:50:59;;;;;;;5.82;3.33;;;;;;;-1.15;82.57;102345.19;5048183;28;20032;-75
2022/03/09 06:53:25;;;;;;;10.45;3.85;;;;;;;-1.08;82.85;102341.53;5049433;28;20024;-75
2022/03/09 06:55:50;;;;;;;5.93;4.07;;;;;;;-0.98;82.34;102350.78;5049340;28;20393;-74
2022/03/09 06:58:16;;;;;;;6.35;4.10;;;;;;;-0.99;81.99;102351.66;5047735;28;20116;-76
2022/03/09 07:00:42;;;;;;;7.97;4.32;;;;;;;-1.07;82.96;102349.28;5049893;28;20423;-75
2022/03/09 07:03:07;;;;;;;6.85;4.25;;;;;;;-1.04;82.83;102358.72;5054651;28;20025;-75
2022/03/09 07:05:33;;;;;;;5.95;4.00;;;;;;;-0.91;83.08;102370.47;5049740;28;20040;-75
2022/03/09 07:07:59;;;;;;;7.63;5.03;;;;;;;-0.87;82.75;102377.28;5058895;28;20037;-75
2022/03/09 07:10:25;;;;;;;6.50;3.90;;;;;;;-0.86;82.89;102373.78;5059502;28;20488;-76
2022/03/09 07:12:50;;;;;;;5.85;4.55;;;;;;;-0.72;82.46;102385.53;5057706;28;20017;-76
2022/03/09 07:15:15;;;;;;;5.53;3.70;;;;;;;-0.78;82.29;102363.25;5057475;28;20021;-75
2022/03/09 07:17:42;;;;;;;12.50;3.85;;;;;;;-0.72;82.32;102376.06;5055399;28;20055;-75
2022/03/09 07:20:09;;;;;;;6.38;4.70;;;;;;;-0.58;82.73;102383.47;5057711;28;20024;-75
2022/03/09 07:22:34;;;;;;;7.82;4.35;;;;;;;-0.47;82.67;102381.44;5052457;28;20056;-75
2022/03/09 07:24:59;;;;;;;7.10;3.83;;;;;;;-0.37;82.72;102381.16;5057611;28;20056;-75
2022/03/09 07:27:25;;;;;;;10.82;5.65;;;;;;;-0.26;82.37;102389.50;5054460;28;20086;-75
2022/03/09 07:29:50;;;;;;;14.05;5.05;;;;;;;-0.20;81.77;102389.34;5056499;28;20415;-76
2022/03/09 07:32:16;;;;;;;6.30;4.00;;;;;;;-0.08;81.55;102383.81;5051953;28;20021;-76
2022/03/09 07:34:41;;;;;;;7.18;4.30;;;;;;;-0.07;80.68;102364.75;5052261;28;20086;-76
2022/03/09 07:37:07;;;;;;;6.40;3.72;;;;;;;0.11;80.44;102362.50;5056714;28;20028;-75
2022/03/09 07:39:33;;;;;;;7.43;4.45;;;;;;;0.37;80.19;102387.69;5057548;28;20035;-76
2022/03/09 07:41:59;;;;;;;6.70;3.40;;;;;;;0.58;79.51;102379.25;5048082;28;20024;-75
2022/03/09 07:44:25;;;;;;;6.00;3.72;;;;;;;0.72;78.04;102378.84;5059309;28;20020;-75
2022/03/09 07:46:51;;;;;;;8.93;4.93;;;;;;;0.85;77.14;102383.63;5055212;28;20577;-74
2022/03/09 07:49:18;;;;;;;7.75;4.78;;;;;;;1.00;76.85;102380.50;5052607;28;20028;-74
2022/03/09 07:51:44;;;;;;;8.60;4.55;;;;;;;1.21;76.23;102387.59;5056491;28;20120;-74
2022/03/09 07:54:10;;;;;;;8.45;4.68;;;;;;;1.48;75.06;102390.19;5056596;28;20193;-75
2022/03/09 07:56:35;;;;;;;9.93;4.25;;;;;;;1.91;74.50;102370.41;5057837;28;20033;-75
2022/03/09 07:59:02;;;;;;;7.45;4.22;;;;;;;2.49;73.29;102379.53;5057788;28;20025;-76
2022/03/09 08:01:28;;;;;;;11.25;4.75;;;;;;;2.80;71.23;102376.56;5054338;28;20071;-75
2022/03/09 08:03:54;;;;;;;7.38;4.53;;;;;;;3.05;69.98;102372.03;5039898;28;20549;-76
2022/03/09 08:06:20;;;;;;;7.47;4.07;;;;;;;3.58;67.39;102401.97;5054180;28;20220;-76
2022/03/09 08:08:45;;;;;;;6.80;4.28;;;;;;;4.06;65.87;102397.25;5052494;28;20481;-75
2022/03/09 08:11:11;;;;;;;8.93;4.15;;;;;;;5.06;63.56;102395.16;5052153;28;20515;-75
2022/03/09 08:13:36;;;;;;;8.18;4.93;;;;;;;5.54;60.90;102357.75;5053553;28;20037;-75
2022/03/09 08:16:01;;;;;;;9.00;5.35;;;;;;;5.93;59.81;102381.94;5054377;28;20081;-75
2022/03/09 08:18:27;;;;;;;8.32;4.47;;;;;;;6.90;57.42;102381.84;5057020;28;20029;-75
2022/03/09 08:20:52;;;;;;;6.50;4.50;;;;;;;7.37;56.02;102381.69;5056285;28;20016;-75
2022/03/09 08:23:18;;;;;;;7.53;4.50;;;;;;;7.13;54.56;102360.34;5059062;28;20094;-77
2022/03/09 08:25:43;;;;;;;6.18;4.43;;;;;;;7.85;55.05;102359.56;5053258;28;20029;-77
2022/03/09 08:28:08;;;;;;;6.60;4.22;;;;;;;9.50;52.08;102376.88;5035173;28;20439;-77
2022/03/09 08:30:34;;;;;;;8.30;5.15;;;;;;;9.18;49.27;102392.25;5050802;28;20029;-77
2022/03/09 08:32:59;;;;;;;6.82;4.90;;;;;;;8.37;50.88;102395.75;5056462;28;20174;-77
2022/03/09 08:35:24;;;;;;;8.20;4.97;;;;;;;8.54;50.87;102397.34;5055338;28;20115;-76
2022/03/09 08:37:50;;;;;;;7.90;5.18;;;;;;;8.94;49.97;102397.34;5055652;28;20036;-77
2022/03/09 08:40:15;;;;;;;7.85;4.95;;;;;;;9.42;50.06;102395.84;5055311;28;20500;-77
2022/03/09 08:42:41;;;;;;;7.80;4.82;;;;;;;9.30;49.90;102395.81;5053361;28;20103;-77
2022/03/09 08:45:06;;;;;;;6.97;5.22;;;;;;;9.12;49.82;102379.47;5057083;28;20029;-77
2022/03/09 08:47:32;;;;;;;8.52;4.97;;;;;;;10.15;48.54;102386.41;5053864;28;20028;-76
2022/03/09 08:49:57;;;;;;;8.57;5.43;;;;;;;11.40;47.04;102386.00;5054640;28;20574;-76
2022/03/09 08:52:23;;;;;;;6.45;4.85;;;;;;;11.27;46.15;102388.72;5054657;28;20157;-76
2022/03/09 08:54:53;;;;;;;7.55;5.03;;;;;;;11.04;46.62;102394.91;5056864;28;20046;-76
2022/03/09 08:57:19;;;;;;;7.90;4.60;;;;;;;11.08;46.77;102394.59;5036057;28;20032;-76
2022/03/09 08:59:45;;;;;;;6.88;4.70;;;;;;;11.57;46.74;102389.16;5040933;28;20553;-76
2022/03/09 09:02:10;;;;;;;7.00;4.72;;;;;;;10.62;47.06;102397.97;5057497;28;20122;-76
2022/03/09 09:04:36;;;;;;;8.05;5.32;;;;;;;9.75;47.96;102401.53;5055021;28;20381;-76
2022/03/09 09:07:02;;;;;;;6.35;4.78;;;;;;;10.00;46.69;102392.78;5056946;28;20124;-76
2022/03/09 09:09:27;;;;;;;7.30;4.80;;;;;;;10.59;46.63;102392.09;5056597;28;20040;-76
2022/03/09 09:11:54;;;;;;;7.85;5.13;;;;;;;11.17;45.33;102389.53;5035548;28;20024;-76
2022/03/09 09:14:19;;;;;;;8.52;5.22;;;;;;;11.59;44.44;102392.53;5057237;28;20029;-76
2022/03/09 09:16:45;;;;;;;7.82;4.68;;;;;;;12.09;42.95;102374.50;5055735;28;20077;-76
2022/03/09 09:19:10;;;;;;;6.40;4.68;;;;;;;12.17;40.98;102387.94;5052892;28;20032;-76
2022/03/09 09:21:36;;;;;;;7.85;4.97;;;;;;;10.74;42.16;102369.00;5056624;28;20530;-76
2022/03/09 09:24:02;;;;;;;7.43;4.43;;;;;;;10.09;44.13;102363.09;5053566;28;20585;-76
2022/03/09 09:26:27;;;;;;;8.80;4.93;;;;;;;9.93;45.29;102388.84;5055261;28;20324;-76
2022/03/09 09:28:52;;;;;;;5.95;4.80;;;;;;;10.55;44.93;102395.91;5055049;28;20112;-76
2022/03/09 09:31:18;;;;;;;6.10;4.70;;;;;;;10.89;43.33;102383.72;5057101;28;20033;-76
2022/03/09 09:33:43;;;;;;;10.23;4.93;;;;;;;11.16;43.14;102358.81;5054046;28;20036;-77
2022/03/09 09:36:08;;;;;;;8.75;4.85;;;;;;;11.89;41.30;102376.94;5052228;28;20450;-76
2022/03/09 09:38:34;;;;;;;8.93;5.47;;;;;;;11.09;42.45;102375.13;5053319;28;20044;-77
2022/03/09 09:41:00;;;;;;;7.25;5.13;;;;;;;11.29;43.24;102380.69;5054121;28;20033;-77
2022/03/09 09:43:25;;;;;;;6.40;5.13;;;;;;;12.09;42.12;102382.44;5056586;28;20032;-77
2022/03/09 09:45:52;;;;;;;7.53;5.68;;;;;;;11.84;41.98;102386.16;5058186;28;20397;-77
2022/03/09 09:48:19;;;;;;;9.40;5.43;;;;;;;11.61;41.81;102378.22;5057401;28;20174;-77
2022/03/09 09:50:45;;;;;;;10.02;5.55;;;;;;;12.37;41.24;102377.56;5058292;28;20033;-77
2022/03/09 09:53:12;;;;;;;8.48;5.13;;;;;;;11.84;42.00;102381.69;5059753;28;20037;-76
2022/03/09 09:55:39;;;;;;;10.85;6.13;;;;;;;13.92;41.44;102369.84;5057324;28;20013;-76
2022/03/09 09:58:05;;;;;;;7.18;5.07;;;;;;;13.98;38.72;102372.81;5057400;28;20477;-76
2022/03/09 10:00:31;;;;;;;10.32;5.07;;;;;;;13.51;39.45;102376.94;5058375;28;20036;-76
2022/03/09 10:02:57;;;;;;;7.15;5.00;;;;;;;12.32;40.10;102370.88;5059356;28;20016;-76
2022/03/09 10:05:22;;;;;;;10.15;5.13;;;;;;;12.30;40.78;102364.84;5058434;28;20496;-77
2022/03/09 10:08:03;;;;;;;7.65;5.30;;;;;;;12.94;40.03;102371.94;5040728;28;20044;-77
2022/03/09 10:10:53;;;;;;;6.03;4.68;;;;;;;13.50;40.24;102372.59;5057036;28;20096;-76
2022/03/09 10:13:21;;;;;;;7.75;4.90;;;;;;;14.18;38.19;102373.69;5049740;28;20067;-76
2022/03/09 10:16:06;;;;;;;47.47;7.28;;;;;;;13.10;39.83;102371.47;5072345;28;20036;-76
2022/03/09 10:18:32;;;;;;;10.30;6.70;;;;;;;12.49;40.12;102366.00;5054125;28;20040;-76
2022/03/09 10:21:11;;;;;;;9.75;7.25;;;;;;;13.39;39.56;102346.97;5043184;28;20025;-76
2022/03/09 10:24:02;;;;;;;6.72;5.05;;;;;;;13.57;38.15;102369.28;5056359;28;20020;-76
2022/03/09 10:26:44;;;;;;;8.35;5.88;;;;;;;12.93;38.03;102361.47;5058245;28;20451;-76
2022/03/09 10:29:18;;;;;;;9.43;5.45;;;;;;;12.94;37.82;102369.28;5058488;28;20115;-76
2022/03/09 10:31:45;;;;;;;10.20;5.70;;;;;;;12.55;37.83;102371.63;5055501;28;20098;-76
2022/03/09 10:34:23;;;;;;;9.85;5.45;;;;;;;12.84;37.77;102356.94;5058242;28;20068;-76
2022/03/09 10:36:54;;;;;;;7.35;5.10;;;;;;;13.18;38.08;102368.19;5059219;28;20074;-76
2022/03/09 10:39:21;;;;;;;10.45;5.50;;;;;;;14.35;37.07;102342.97;5058366;28;20120;-76
2022/03/09 10:41:47;;;;;;;8.52;5.05;;;;;;;14.76;35.70;102370.28;5056651;28;20032;-76
2022/03/09 10:44:13;;;;;;;9.38;5.45;;;;;;;13.65;36.93;102365.94;5057477;28;20473;-76
2022/03/09 10:46:50;;;;;;;9.00;5.05;;;;;;;13.87;36.73;102364.94;5039728;28;20366;-76
2022/03/09 10:49:19;;;;;;;9.95;5.95;;;;;;;14.14;37.08;102356.34;5057842;28;20028;-76
2022/03/09 10:51:49;;;;;;;7.03;5.03;;;;;;;14.43;36.96;102381.28;5057449;28;20617;-76
2022/03/09 10:54:22;;;;;;;7.53;5.72;;;;;;;15.40;35.33;102376.75;5058568;28;20094;-76
2022/03/09 10:56:49;;;;;;;8.60;4.85;;;;;;;16.80;34.59;102381.91;5040442;28;20382;-77
2022/03/09 10:59:20;;;;;;;8.93;6.38;;;;;;;14.80;35.16;102368.19;5059326;28;20112;-76
2022/03/09 11:02:05;;;;;;;11.00;5.55;;;;;;;14.65;35.69;102377.56;5057907;28;20025;-76
2022/03/09 11:04:30;;;;;;;7.60;6.03;;;;;;;14.17;35.36;102365.84;5053628;28;20368;-77
2022/03/09 11:06:57;;;;;;;8.30;5.32;;;;;;;14.36;35.45;102378.34;5060128;28;20106;-77
2022/03/09 11:09:22;;;;;;;9.45;6.03;;;;;;;13.97;35.56;102362.31;5058718;28;20040;-77
2022/03/09 11:11:49;;;;;;;5.82;4.90;;;;;;;14.59;35.76;102365.69;5054064;28;20052;-77
2022/03/09 11:14:16;;;;;;;9.50;6.30;;;;;;;14.82;35.35;102368.88;5053038;28;20025;-77
2022/03/09 11:16:42;;;;;;;8.05;6.13;;;;;;;15.06;34.73;102356.97;5052929;28;20044;-77
2022/03/09 11:19:09;;;;;;;8.65;5.53;;;;;;;14.63;34.82;102368.88;5055453;28;20021;-77
2022/03/09 11:21:36;;;;;;;8.98;5.50;;;;;;;14.08;36.08;102361.38;5051330;28;20059;-76
2022/03/09 11:24:08;;;;;;;7.20;5.22;;;;;;;13.76;37.21;102352.63;5055128;28;20063;-77
2022/03/09 11:26:38;;;;;;;8.63;5.68;;;;;;;14.68;36.99;102338.25;5047221;28;20621;-76